www.cux-wetter.de
Wetterdaten: Woche 20.08.07 - 26.08.07 (KW34)
Datum Zeit Temp. A. Feuchte A. Luftdruck Regen Wind Richtung Sonnenschein Solar Taupunkt Windchill Windben
20.08.2007 00:00 17,9 C 81 % 1005,5 hPa 0,0 l/m 0,6 km/h (0 Bft) O 0,00 h 0 W/m 14,7 C 17,9 C 0,6 km/h (0 Bft)
20.08.2007 01:00 18,4 C 81 % 1004,8 hPa 0,0 l/m 0,0 km/h (0 Bft) N 0,00 h 0 W/m 15,1 C 18,4 C 0,0 km/h (0 Bft)
20.08.2007 02:00 17,9 C 82 % 1004,5 hPa 0,0 l/m 4,9 km/h (1 Bft) S-SO 0,00 h 0 W/m 14,9 C 17,8 C 4,9 km/h (1 Bft)
20.08.2007 03:00 17,7 C 81 % 1003,9 hPa 0,0 l/m 10,6 km/h (2 Bft) S-SO 0,00 h 0 W/m 14,5 C 15,9 C 10,6 km/h (2 Bft)
20.08.2007 04:00 17,3 C 81 % 1003,5 hPa 0,0 l/m 8,4 km/h (2 Bft) S 0,00 h 0 W/m 14,0 C 16,3 C 8,4 km/h (2 Bft)
20.08.2007 05:00 17,0 C 81 % 1002,5 hPa 0,0 l/m 6,5 km/h (2 Bft) S-SO 0,00 h 0 W/m 13,8 C 16,6 C 6,5 km/h (2 Bft)
20.08.2007 06:00 16,7 C 82 % 1002,7 hPa 0,0 l/m 5,8 km/h (2 Bft) S 0,00 h 0 W/m 13,6 C 16,3 C 5,8 km/h (2 Bft)
20.08.2007 07:00 17,3 C 81 % 1003,2 hPa 0,0 l/m 8,8 km/h (2 Bft) S 0,00 h 0 W/m 14,1 C 16,3 C 8,8 km/h (2 Bft)
20.08.2007 08:00 18,0 C 80 % 1002,7 hPa 0,0 l/m 11,8 km/h (2 Bft) S 0,00 h 0 W/m 14,4 C 15,8 C 11,8 km/h (2 Bft)
20.08.2007 09:00 18,6 C 79 % 1002,5 hPa 0,0 l/m 12,1 km/h (2 Bft) S-SW 0,00 h 0 W/m 14,8 C 16,4 C 12,1 km/h (2 Bft)
20.08.2007 10:00 23,4 C 64 % 1002,5 hPa 0,0 l/m 11,0 km/h (2 Bft) S 0,00 h 0 W/m 16,2 C 22,2 C 11,0 km/h (2 Bft)
20.08.2007 11:00 24,0 C 59 % 1002,5 hPa 0,0 l/m 14,8 km/h (3 Bft) S-SW 0,00 h 0 W/m 15,6 C 22,1 C 14,8 km/h (3 Bft)
20.08.2007 12:00 24,2 C 59 % 1002,5 hPa 0,0 l/m 15,8 km/h (3 Bft) S-SW 0,00 h 0 W/m 15,7 C 22,2 C 15,8 km/h (3 Bft)
20.08.2007 13:00 23,7 C 61 % 1002,5 hPa 0,0 l/m 13,0 km/h (3 Bft) S-SW 0,00 h 0 W/m 15,6 C 22,1 C 13,0 km/h (3 Bft)
20.08.2007 14:00 23,0 C 63 % 1002,5 hPa 0,0 l/m 10,4 km/h (2 Bft) S-SW 0,00 h 0 W/m 15,6 C 21,9 C 10,4 km/h (2 Bft)
20.08.2007 15:00 21,4 C 71 % 1002,5 hPa 0,6 l/m 6,7 km/h (2 Bft) W 0,00 h 0 W/m 16,0 C 21,2 C 6,7 km/h (2 Bft)
20.08.2007 16:00 22,3 C 73 % 1003,0 hPa 0,0 l/m 5,2 km/h (1 Bft) S 0,00 h 0 W/m 17,3 C 22,2 C 5,2 km/h (1 Bft)
20.08.2007 17:00 22,0 C 72 % 1003,1 hPa 0,0 l/m 8,1 km/h (2 Bft) S 0,00 h 0 W/m 16,8 C 21,4 C 8,1 km/h (2 Bft)
20.08.2007 18:00 21,6 C 72 % 1003,3 hPa 0,0 l/m 5,9 km/h (2 Bft) S 0,00 h 0 W/m 16,3 C 21,3 C 5,9 km/h (2 Bft)
20.08.2007 19:00 21,7 C 73 % 1004,1 hPa 0,0 l/m 4,3 km/h (1 Bft) S 0,00 h 0 W/m 16,6 C 21,6 C 4,3 km/h (1 Bft)
20.08.2007 20:00 21,2 C 74 % 1004,5 hPa 0,0 l/m 0,0 km/h (0 Bft) N 0,00 h 0 W/m 16,3 C 21,2 C 0,0 km/h (0 Bft)
20.08.2007 21:00 20,5 C 75 % 1005,3 hPa 0,0 l/m 0,0 km/h (0 Bft) N 0,00 h 0 W/m 15,8 C 20,5 C 0,0 km/h (0 Bft)
20.08.2007 22:00 19,3 C 77 % 1005,5 hPa 0,0 l/m 0,6 km/h (0 Bft) SO 0,00 h 0 W/m 15,1 C 19,3 C 0,6 km/h (0 Bft)
20.08.2007 23:00 18,9 C 78 % 1005,5 hPa 0,0 l/m 0,0 km/h (0 Bft) N 0,00 h 0 W/m 15,0 C 18,9 C 0,0 km/h (0 Bft)
21.08.2007 00:00 18,4 C 78 % 1005,5 hPa 0,0 l/m 0,0 km/h (0 Bft) N 0,00 h 0 W/m 14,4 C 18,4 C 0,0 km/h (0 Bft)
21.08.2007 01:00 17,9 C 78 % 1006,3 hPa 0,3 l/m 0,0 km/h (0 Bft) N 0,00 h 0 W/m 13,9 C 17,9 C 0,0 km/h (0 Bft)
21.08.2007 02:00 17,6 C 78 % 1006,5 hPa 0,0 l/m 0,0 km/h (0 Bft) N 0,00 h 0 W/m 13,7 C 17,6 C 0,0 km/h (0 Bft)
21.08.2007 03:00 17,3 C 77 % 1006,5 hPa 0,0 l/m 0,0 km/h (0 Bft) N 0,00 h 0 W/m 13,3 C 17,3 C 0,0 km/h (0 Bft)
21.08.2007 04:00 17,3 C 77 % 1006,5 hPa 0,0 l/m 1,3 km/h (1 Bft) N-NO 0,00 h 0 W/m 13,3 C 17,3 C 1,3 km/h (1 Bft)
21.08.2007 05:00 16,6 C 85 % 1006,3 hPa 0,0 l/m 7,2 km/h (2 Bft) N-NO 0,00 h 0 W/m 14,0 C 15,8 C 7,2 km/h (2 Bft)
21.08.2007 06:00 17,2 C 91 % 1006,5 hPa 0,0 l/m 10,3 km/h (2 Bft) N-NO 0,00 h 0 W/m 15,7 C 15,5 C 10,3 km/h (2 Bft)
21.08.2007 07:00 17,7 C 93 % 1006,5 hPa 0,0 l/m 10,6 km/h (2 Bft) NO 0,00 h 0 W/m 16,5 C 16,0 C 10,6 km/h (2 Bft)
21.08.2007 08:00 18,4 C 92 % 1006,5 hPa 0,0 l/m 12,4 km/h (2 Bft) N-NO 0,00 h 0 W/m 17,1 C 16,1 C 12,4 km/h (2 Bft)
21.08.2007 09:00 18,8 C 91 % 1006,4 hPa 0,0 l/m 16,6 km/h (3 Bft) NO 0,00 h 0 W/m 17,4 C 15,4 C 16,6 km/h (3 Bft)
21.08.2007 10:00 18,6 C 91 % 1006,2 hPa 0,6 l/m 16,4 km/h (3 Bft) NO 0,00 h 0 W/m 17,2 C 15,3 C 16,4 km/h (3 Bft)
21.08.2007 11:00 18,6 C 93 % 1005,5 hPa 0,6 l/m 17,3 km/h (3 Bft) NO 0,00 h 0 W/m 17,4 C 15,0 C 17,3 km/h (3 Bft)
21.08.2007 12:00 18,9 C 94 % 1005,5 hPa 0,0 l/m 15,8 km/h (3 Bft) N-NO 0,00 h 0 W/m 17,9 C 15,7 C 15,8 km/h (3 Bft)
21.08.2007 13:00 19,1 C 93 % 1005,4 hPa 0,0 l/m 18,7 km/h (3 Bft) N-NO 0,00 h 0 W/m 17,9 C 15,3 C 18,7 km/h (3 Bft)
21.08.2007 14:00 19,4 C 92 % 1004,5 hPa 0,0 l/m 21,7 km/h (4 Bft) N-NO 0,00 h 0 W/m 18,0 C 15,1 C 21,7 km/h (4 Bft)
21.08.2007 15:00 19,4 C 91 % 1004,5 hPa 1,2 l/m 24,8 km/h (4 Bft) N-NO 0,00 h 0 W/m 17,9 C 14,7 C 24,8 km/h (4 Bft)
21.08.2007 16:00 18,6 C 94 % 1004,2 hPa 0,0 l/m 29,5 km/h (5 Bft) N-NO 0,00 h 0 W/m 17,6 C 12,9 C 29,5 km/h (5 Bft)
21.08.2007 17:00 18,4 C 94 % 1003,4 hPa 0,6 l/m 28,9 km/h (5 Bft) N-NO 0,00 h 0 W/m 17,4 C 12,7 C 28,9 km/h (5 Bft)
21.08.2007 18:00 18,4 C 95 % 1002,5 hPa 0,3 l/m 25,4 km/h (4 Bft) N-NO 0,00 h 0 W/m 17,6 C 13,2 C 25,4 km/h (4 Bft)
21.08.2007 19:00 18,7 C 95 % 1002,6 hPa 0,0 l/m 21,1 km/h (4 Bft) N-NO 0,00 h 0 W/m 17,8 C 14,4 C 21,1 km/h (4 Bft)
21.08.2007 20:00 18,7 C 94 % 1003,4 hPa 0,0 l/m 18,1 km/h (3 Bft) N-NO 0,00 h 0 W/m 17,7 C 15,0 C 18,1 km/h (3 Bft)
21.08.2007 21:00 18,6 C 94 % 1003,5 hPa 0,0 l/m 19,9 km/h (4 Bft) N-NO 0,00 h 0 W/m 17,6 C 14,5 C 19,9 km/h (4 Bft)
21.08.2007 22:00 18,5 C 94 % 1004,3 hPa 0,0 l/m 19,1 km/h (3 Bft) N-NO 0,00 h 0 W/m 17,5 C 14,6 C 19,1 km/h (3 Bft)
21.08.2007 23:00 18,5 C 94 % 1004,7 hPa 0,0 l/m 21,4 km/h (4 Bft) O-NO 0,00 h 0 W/m 17,4 C 14,1 C 21,4 km/h (4 Bft)
22.08.2007 00:00 18,3 C 93 % 1005,5 hPa 0,0 l/m 17,1 km/h (3 Bft) NO 0,00 h 0 W/m 17,2 C 14,7 C 17,1 km/h (3 Bft)
22.08.2007 01:00 18,2 C 94 % 1005,5 hPa 0,0 l/m 17,7 km/h (3 Bft) NO 0,00 h 0 W/m 17,2 C 14,5 C 17,7 km/h (3 Bft)
22.08.2007 02:00 18,0 C 94 % 1005,5 hPa 0,0 l/m 16,4 km/h (3 Bft) O-NO 0,00 h 0 W/m 17,0 C 14,4 C 16,4 km/h (3 Bft)
22.08.2007 03:00 17,9 C 94 % 1005,5 hPa 0,0 l/m 16,0 km/h (3 Bft) O-NO 0,00 h 0 W/m 16,9 C 14,4 C 16,0 km/h (3 Bft)
22.08.2007 04:00 17,7 C 94 % 1005,6 hPa 0,0 l/m 15,2 km/h (3 Bft) O 0,00 h 0 W/m 16,7 C 14,4 C 15,2 km/h (3 Bft)
22.08.2007 05:00 17,5 C 95 % 1006,5 hPa 0,0 l/m 12,8 km/h (3 Bft) O 0,00 h 0 W/m 16,7 C 14,9 C 12,8 km/h (3 Bft)
22.08.2007 06:00 17,6 C 94 % 1007,0 hPa 0,0 l/m 14,7 km/h (3 Bft) O 0,00 h 0 W/m 16,6 C 14,5 C 14,7 km/h (3 Bft)
22.08.2007 07:00 17,7 C 94 % 1007,5 hPa 0,0 l/m 12,8 km/h (3 Bft) O 0,00 h 0 W/m 16,7 C 15,1 C 12,8 km/h (3 Bft)
22.08.2007 08:00 18,3 C 92 % 1007,9 hPa 0,0 l/m 13,7 km/h (3 Bft) O 0,00 h 0 W/m 17,0 C 15,7 C 13,7 km/h (3 Bft)
22.08.2007 09:00 19,3 C 88 % 1008,5 hPa 0,0 l/m 12,1 km/h (2 Bft) O-NO 0,00 h 0 W/m 17,2 C 17,1 C 12,1 km/h (2 Bft)
22.08.2007 10:00 22,9 C 75 % 1008,5 hPa 0,0 l/m 13,3 km/h (3 Bft) O 0,00 h 0 W/m 18,0 C 21,1 C 13,3 km/h (3 Bft)
22.08.2007 11:00 22,8 C 73 % 1008,6 hPa 0,0 l/m 11,6 km/h (2 Bft) O 0,00 h 0 W/m 17,6 C 21,3 C 11,6 km/h (2 Bft)
22.08.2007 12:00 23,6 C 71 % 1008,6 hPa 0,0 l/m 11,1 km/h (2 Bft) O 0,00 h 0 W/m 18,1 C 22,3 C 11,1 km/h (2 Bft)
22.08.2007 13:00 23,7 C 72 % 1008,5 hPa 0,0 l/m 9,0 km/h (2 Bft) O 0,00 h 0 W/m 18,3 C 23,0 C 9,0 km/h (2 Bft)
22.08.2007 14:00 24,9 C 66 % 1009,0 hPa 0,0 l/m 10,9 km/h (2 Bft) O 0,00 h 0 W/m 18,2 C 23,9 C 10,9 km/h (2 Bft)
22.08.2007 15:00 22,9 C 73 % 1008,9 hPa 0,0 l/m 9,9 km/h (2 Bft) NO 0,00 h 0 W/m 17,8 C 21,9 C 9,9 km/h (2 Bft)
22.08.2007 16:00 23,3 C 74 % 1008,5 hPa 0,0 l/m 9,1 km/h (2 Bft) NO 0,00 h 0 W/m 18,3 C 22,5 C 9,1 km/h (2 Bft)
22.08.2007 17:00 20,3 C 83 % 1008,9 hPa 26,1 l/m 4,6 km/h (1 Bft) N 0,00 h 0 W/m 17,3 C 20,0 C 4,6 km/h (1 Bft)
22.08.2007 18:00 18,4 C 88 % 1008,8 hPa 2,4 l/m 1,9 km/h (1 Bft) N-NO 0,00 h 0 W/m 16,4 C 18,4 C 1,9 km/h (1 Bft)
22.08.2007 19:00 17,9 C 91 % 1009,2 hPa 0,0 l/m 6,6 km/h (2 Bft) N 0,00 h 0 W/m 16,3 C 17,0 C 6,6 km/h (2 Bft)
22.08.2007 20:00 17,6 C 92 % 1009,5 hPa 0,0 l/m 2,7 km/h (1 Bft) SO 0,00 h 0 W/m 16,2 C 17,6 C 2,7 km/h (1 Bft)
22.08.2007 21:00 17,4 C 93 % 1009,6 hPa 0,0 l/m 0,8 km/h (0 Bft) SO 0,00 h 0 W/m 16,2 C 17,4 C 0,8 km/h (0 Bft)
22.08.2007 22:00 17,1 C 93 % 1010,5 hPa 0,0 l/m 1,3 km/h (1 Bft) S-SO 0,00 h 0 W/m 16,0 C 17,1 C 1,3 km/h (1 Bft)
22.08.2007 23:00 17,1 C 94 % 1010,5 hPa 0,0 l/m 1,1 km/h (1 Bft) O-SO 0,00 h 0 W/m 16,1 C 17,1 C 1,1 km/h (1 Bft)
23.08.2007 00:00 16,9 C 95 % 1010,5 hPa 0,0 l/m 1,7 km/h (1 Bft) O-SO 0,00 h 0 W/m 16,0 C 16,9 C 1,7 km/h (1 Bft)
23.08.2007 01:00 16,8 C 95 % 1010,5 hPa 0,0 l/m 2,7 km/h (1 Bft) O 0,00 h 0 W/m 16,0 C 16,7 C 2,7 km/h (1 Bft)
23.08.2007 02:00 16,2 C 95 % 1010,5 hPa 0,0 l/m 4,4 km/h (1 Bft) SO 0,00 h 0 W/m 15,4 C 16,1 C 4,4 km/h (1 Bft)
23.08.2007 03:00 16,0 C 96 % 1010,5 hPa 0,0 l/m 6,8 km/h (2 Bft) S-SO 0,00 h 0 W/m 15,4 C 15,2 C 6,8 km/h (2 Bft)
23.08.2007 04:00 15,9 C 96 % 1010,5 hPa 0,0 l/m 7,0 km/h (2 Bft) SO 0,00 h 0 W/m 15,2 C 15,3 C 7,0 km/h (2 Bft)
23.08.2007 05:00 16,1 C 96 % 1011,4 hPa 0,0 l/m 4,4 km/h (1 Bft) S-SO 0,00 h 0 W/m 15,5 C 15,9 C 4,4 km/h (1 Bft)
23.08.2007 06:00 16,3 C 97 % 1011,5 hPa 0,0 l/m 5,5 km/h (2 Bft) SO 0,00 h 0 W/m 15,8 C 16,1 C 5,5 km/h (2 Bft)
23.08.2007 07:00 16,2 C 97 % 1012,1 hPa 0,0 l/m 2,8 km/h (1 Bft) SO 0,00 h 0 W/m 15,7 C 16,0 C 2,8 km/h (1 Bft)
23.08.2007 08:00 17,1 C 97 % 1012,5 hPa 0,0 l/m 3,9 km/h (1 Bft) SO 0,00 h 0 W/m 16,6 C 16,9 C 3,9 km/h (1 Bft)
23.08.2007 09:00 18,1 C 97 % 1012,9 hPa 0,0 l/m 9,6 km/h (2 Bft) SO 0,00 h 0 W/m 17,5 C 16,7 C 9,6 km/h (2 Bft)
23.08.2007 10:00 18,4 C 94 % 1013,5 hPa 0,0 l/m 10,8 km/h (2 Bft) SO 0,00 h 0 W/m 17,5 C 16,6 C 10,8 km/h (2 Bft)
23.08.2007 11:00 20,1 C 90 % 1013,5 hPa 0,0 l/m 7,4 km/h (2 Bft) O 0,00 h 0 W/m 18,4 C 19,5 C 7,4 km/h (2 Bft)
23.08.2007 12:00 22,0 C 83 % 1013,5 hPa 0,0 l/m 8,0 km/h (2 Bft) SO 0,00 h 0 W/m 19,0 C 21,4 C 8,0 km/h (2 Bft)
23.08.2007 13:00 23,8 C 77 % 1013,5 hPa 0,0 l/m 8,5 km/h (2 Bft) O-NO 0,00 h 0 W/m 19,4 C 23,2 C 8,5 km/h (2 Bft)
23.08.2007 14:00 24,1 C 74 % 1013,5 hPa 0,0 l/m 7,3 km/h (2 Bft) O-SO 0,00 h 0 W/m 19,1 C 23,8 C 7,3 km/h (2 Bft)
23.08.2007 15:00 24,6 C 72 % 1013,5 hPa 0,0 l/m 8,5 km/h (2 Bft) NO 0,00 h 0 W/m 19,2 C 24,0 C 8,5 km/h (2 Bft)
23.08.2007 16:00 23,5 C 72 % 1013,8 hPa 0,0 l/m 5,6 km/h (2 Bft) N-NO 0,00 h 0 W/m 18,2 C 23,1 C 5,6 km/h (2 Bft)
23.08.2007 17:00 21,8 C 81 % 1014,5 hPa 1,2 l/m 3,9 km/h (1 Bft) NW 0,00 h 0 W/m 18,4 C 21,7 C 3,9 km/h (1 Bft)
23.08.2007 18:00 21,4 C 87 % 1014,5 hPa 0,0 l/m 3,0 km/h (1 Bft) N-NO 0,00 h 0 W/m 19,0 C 21,4 C 3,0 km/h (1 Bft)
23.08.2007 19:00 20,3 C 89 % 1014,5 hPa 0,0 l/m 8,6 km/h (2 Bft) N-NO 0,00 h 0 W/m 18,4 C 19,4 C 8,6 km/h (2 Bft)
23.08.2007 20:00 19,6 C 91 % 1014,8 hPa 0,0 l/m 3,9 km/h (1 Bft) N-NO 0,00 h 0 W/m 18,0 C 19,5 C 3,9 km/h (1 Bft)
23.08.2007 21:00 18,7 C 92 % 1015,5 hPa 0,0 l/m 2,1 km/h (1 Bft) N 0,00 h 0 W/m 17,3 C 18,6 C 2,1 km/h (1 Bft)
23.08.2007 22:00 18,4 C 93 % 1015,5 hPa 0,0 l/m 4,9 km/h (1 Bft) N-NO 0,00 h 0 W/m 17,3 C 18,0 C 4,9 km/h (1 Bft)
23.08.2007 23:00 18,6 C 95 % 1016,4 hPa 0,0 l/m 9,2 km/h (2 Bft) N-NO 0,00 h 0 W/m 17,7 C 17,4 C 9,2 km/h (2 Bft)
24.08.2007 00:00 18,2 C 95 % 1016,5 hPa 0,0 l/m 7,5 km/h (2 Bft) N-NO 0,00 h 0 W/m 17,4 C 17,4 C 7,5 km/h (2 Bft)
24.08.2007 01:00 17,7 C 96 % 1016,5 hPa 0,0 l/m 4,4 km/h (1 Bft) N-NO 0,00 h 0 W/m 17,0 C 17,7 C 4,4 km/h (1 Bft)
24.08.2007 02:00 17,0 C 96 % 1016,5 hPa 0,0 l/m 1,5 km/h (1 Bft) N-NO 0,00 h 0 W/m 16,3 C 17,0 C 1,5 km/h (1 Bft)
24.08.2007 03:00 16,2 C 96 % 1016,5 hPa 0,0 l/m 0,0 km/h (0 Bft) N 0,00 h 0 W/m 15,5 C 16,2 C 0,0 km/h (0 Bft)
24.08.2007 04:00 15,5 C 96 % 1017,2 hPa 0,3 l/m 0,0 km/h (0 Bft) N 0,00 h 0 W/m 14,9 C 15,5 C 0,0 km/h (0 Bft)
24.08.2007 05:00 16,4 C 97 % 1017,5 hPa 0,0 l/m 8,2 km/h (2 Bft) N 0,00 h 0 W/m 15,9 C 15,0 C 8,2 km/h (2 Bft)
24.08.2007 06:00 16,8 C 97 % 1017,5 hPa 0,0 l/m 8,0 km/h (2 Bft) N 0,00 h 0 W/m 16,3 C 15,5 C 8,0 km/h (2 Bft)
24.08.2007 07:00 16,5 C 97 % 1018,5 hPa 0,0 l/m 1,6 km/h (1 Bft) N 0,00 h 0 W/m 16,0 C 16,5 C 1,6 km/h (1 Bft)
24.08.2007 08:00 17,2 C 98 % 1018,8 hPa 0,0 l/m 5,1 km/h (1 Bft) NW 0,00 h 0 W/m 16,9 C 17,0 C 5,1 km/h (1 Bft)
24.08.2007 09:00 18,4 C 96 % 1019,5 hPa 0,0 l/m 11,1 km/h (2 Bft) W-NW 0,00 h 0 W/m 17,8 C 16,7 C 11,1 km/h (2 Bft)
24.08.2007 10:00 19,6 C 90 % 1020,3 hPa 0,0 l/m 10,8 km/h (2 Bft) NW 0,00 h 0 W/m 17,8 C 17,9 C 10,8 km/h (2 Bft)
24.08.2007 11:00 19,7 C 84 % 1020,5 hPa 0,0 l/m 11,2 km/h (2 Bft) NW 0,00 h 0 W/m 17,0 C 18,0 C 11,2 km/h (2 Bft)
24.08.2007 12:00 19,8 C 81 % 1021,2 hPa 0,0 l/m 10,6 km/h (2 Bft) NW 0,00 h 0 W/m 16,5 C 18,3 C 10,6 km/h (2 Bft)
24.08.2007 13:00 20,7 C 77 % 1021,5 hPa 0,0 l/m 13,8 km/h (3 Bft) W-NW 0,00 h 0 W/m 16,6 C 18,4 C 13,8 km/h (3 Bft)
24.08.2007 14:00 21,0 C 75 % 1021,5 hPa 0,0 l/m 13,4 km/h (3 Bft) W-NW 0,00 h 0 W/m 16,4 C 18,9 C 13,4 km/h (3 Bft)
24.08.2007 15:00 21,8 C 73 % 1021,5 hPa 0,0 l/m 12,2 km/h (2 Bft) NW 0,00 h 0 W/m 16,8 C 20,1 C 12,2 km/h (2 Bft)
24.08.2007 16:00 21,4 C 75 % 1021,5 hPa 0,0 l/m 12,7 km/h (3 Bft) NW 0,00 h 0 W/m 16,8 C 19,5 C 12,7 km/h (3 Bft)
24.08.2007 17:00 21,3 C 76 % 1021,5 hPa 0,0 l/m 12,8 km/h (3 Bft) NW 0,00 h 0 W/m 16,9 C 19,4 C 12,8 km/h (3 Bft)
24.08.2007 18:00 20,3 C 79 % 1021,5 hPa 0,0 l/m 13,6 km/h (3 Bft) NW 0,00 h 0 W/m 16,5 C 17,9 C 13,6 km/h (3 Bft)
24.08.2007 19:00 19,3 C 82 % 1021,5 hPa 0,0 l/m 12,9 km/h (3 Bft) N-NW 0,00 h 0 W/m 16,1 C 17,0 C 12,9 km/h (3 Bft)
24.08.2007 20:00 18,4 C 83 % 1022,0 hPa 0,0 l/m 10,3 km/h (2 Bft) N-NW 0,00 h 0 W/m 15,5 C 16,8 C 10,3 km/h (2 Bft)
24.08.2007 21:00 17,8 C 85 % 1022,5 hPa 0,0 l/m 7,3 km/h (2 Bft) N-NW 0,00 h 0 W/m 15,2 C 17,1 C 7,3 km/h (2 Bft)
24.08.2007 22:00 17,4 C 86 % 1022,5 hPa 0,0 l/m 4,2 km/h (1 Bft) NW 0,00 h 0 W/m 15,1 C 17,3 C 4,2 km/h (1 Bft)
24.08.2007 23:00 17,2 C 88 % 1022,5 hPa 0,0 l/m 6,5 km/h (2 Bft) W-NW 0,00 h 0 W/m 15,2 C 16,6 C 6,5 km/h (2 Bft)
25.08.2007 00:00 17,2 C 88 % 1022,6 hPa 0,0 l/m 9,3 km/h (2 Bft) W-NW 0,00 h 0 W/m 15,2 C 15,9 C 9,3 km/h (2 Bft)
25.08.2007 01:00 17,6 C 88 % 1022,6 hPa 0,0 l/m 10,8 km/h (2 Bft) NW 0,00 h 0 W/m 15,6 C 15,7 C 10,8 km/h (2 Bft)
25.08.2007 02:00 17,8 C 88 % 1022,5 hPa 0,0 l/m 9,8 km/h (2 Bft) NW 0,00 h 0 W/m 15,9 C 16,4 C 9,8 km/h (2 Bft)
25.08.2007 03:00 17,8 C 89 % 1022,5 hPa 0,0 l/m 9,6 km/h (2 Bft) NW 0,00 h 0 W/m 15,9 C 16,4 C 9,6 km/h (2 Bft)
25.08.2007 04:00 17,7 C 90 % 1022,5 hPa 0,0 l/m 11,3 km/h (2 Bft) NW 0,00 h 0 W/m 15,9 C 15,6 C 11,3 km/h (2 Bft)
25.08.2007 05:00 17,5 C 88 % 1022,5 hPa 0,0 l/m 13,2 km/h (3 Bft) NW 0,00 h 0 W/m 15,6 C 14,9 C 13,2 km/h (3 Bft)
25.08.2007 06:00 17,4 C 86 % 1022,5 hPa 0,0 l/m 13,3 km/h (3 Bft) NW 0,00 h 0 W/m 15,1 C 14,7 C 13,3 km/h (3 Bft)
25.08.2007 07:00 17,8 C 83 % 1022,7 hPa 0,0 l/m 17,4 km/h (3 Bft) NW 0,00 h 0 W/m 14,9 C 14,0 C 17,4 km/h (3 Bft)
25.08.2007 08:00 18,1 C 81 % 1023,5 hPa 0,0 l/m 17,3 km/h (3 Bft) NW 0,00 h 0 W/m 14,7 C 14,3 C 17,3 km/h (3 Bft)
25.08.2007 09:00 18,6 C 80 % 1023,5 hPa 0,0 l/m 17,0 km/h (3 Bft) NW 0,00 h 0 W/m 15,1 C 15,1 C 17,0 km/h (3 Bft)
25.08.2007 10:00 19,1 C 77 % 1023,5 hPa 0,0 l/m 17,1 km/h (3 Bft) W-NW 0,00 h 0 W/m 15,0 C 15,7 C 17,1 km/h (3 Bft)
25.08.2007 11:00 20,1 C 76 % 1023,5 hPa 0,0 l/m 20,6 km/h (4 Bft) W 0,00 h 0 W/m 15,6 C 16,2 C 20,6 km/h (4 Bft)
25.08.2007 12:00 20,3 C 76 % 1023,5 hPa 0,0 l/m 21,6 km/h (4 Bft) W 0,00 h 0 W/m 16,0 C 16,4 C 21,6 km/h (4 Bft)
25.08.2007 13:00 21,5 C 73 % 1023,5 hPa 0,0 l/m 25,6 km/h (4 Bft) W-NW 0,00 h 0 W/m 16,6 C 17,4 C 25,6 km/h (4 Bft)
25.08.2007 14:00 20,3 C 79 % 1023,7 hPa 0,0 l/m 27,2 km/h (5 Bft) NW 0,00 h 0 W/m 16,4 C 15,4 C 27,2 km/h (5 Bft)
25.08.2007 15:00 21,1 C 75 % 1023,5 hPa 0,0 l/m 27,9 km/h (5 Bft) W-NW 0,00 h 0 W/m 16,5 C 16,5 C 27,9 km/h (5 Bft)
25.08.2007 16:00 20,9 C 75 % 1023,5 hPa 0,0 l/m 25,9 km/h (4 Bft) NW 0,00 h 0 W/m 16,3 C 16,5 C 25,9 km/h (4 Bft)
25.08.2007 17:00 20,4 C 75 % 1023,5 hPa 0,0 l/m 24,3 km/h (4 Bft) NW 0,00 h 0 W/m 15,8 C 16,0 C 24,3 km/h (4 Bft)
25.08.2007 18:00 19,4 C 78 % 1023,5 hPa 0,0 l/m 24,4 km/h (4 Bft) W-NW 0,00 h 0 W/m 15,4 C 14,8 C 24,4 km/h (4 Bft)
25.08.2007 19:00 19,0 C 80 % 1023,1 hPa 0,0 l/m 23,9 km/h (4 Bft) NW 0,00 h 0 W/m 15,5 C 14,3 C 23,9 km/h (4 Bft)
25.08.2007 20:00 18,2 C 83 % 1022,5 hPa 0,0 l/m 22,0 km/h (4 Bft) W-NW 0,00 h 0 W/m 15,3 C 13,5 C 22,0 km/h (4 Bft)
25.08.2007 21:00 17,8 C 80 % 1022,8 hPa 0,0 l/m 22,5 km/h (4 Bft) W-NW 0,00 h 0 W/m 14,3 C 13,0 C 22,5 km/h (4 Bft)
25.08.2007 22:00 18,2 C 77 % 1022,8 hPa 0,0 l/m 21,8 km/h (4 Bft) W-NW 0,00 h 0 W/m 14,0 C 13,6 C 21,8 km/h (4 Bft)
25.08.2007 23:00 18,3 C 77 % 1022,5 hPa 0,0 l/m 21,2 km/h (4 Bft) W-NW 0,00 h 0 W/m 14,2 C 13,9 C 21,2 km/h (4 Bft)
26.08.2007 00:00 18,1 C 82 % 1022,5 hPa 0,0 l/m 18,3 km/h (3 Bft) W 0,00 h 0 W/m 15,0 C 14,2 C 18,3 km/h (3 Bft)
26.08.2007 01:00 17,9 C 83 % 1021,8 hPa 0,0 l/m 18,7 km/h (3 Bft) W-NW 0,00 h 0 W/m 15,1 C 13,8 C 18,7 km/h (3 Bft)
26.08.2007 02:00 17,7 C 87 % 1021,5 hPa 0,0 l/m 23,0 km/h (4 Bft) W-NW 0,00 h 0 W/m 15,4 C 12,7 C 23,0 km/h (4 Bft)
26.08.2007 03:00 17,3 C 90 % 1021,5 hPa 0,0 l/m 20,0 km/h (4 Bft) W 0,00 h 0 W/m 15,7 C 12,8 C 20,0 km/h (4 Bft)
26.08.2007 04:00 17,3 C 92 % 1020,5 hPa 0,0 l/m 19,9 km/h (4 Bft) W 0,00 h 0 W/m 15,9 C 12,7 C 19,9 km/h (4 Bft)
26.08.2007 05:00 17,0 C 94 % 1020,5 hPa 0,0 l/m 22,2 km/h (4 Bft) W 0,00 h 0 W/m 16,0 C 11,9 C 22,2 km/h (4 Bft)
26.08.2007 06:00 17,0 C 94 % 1020,5 hPa 0,0 l/m 23,0 km/h (4 Bft) W 0,00 h 0 W/m 16,0 C 11,8 C 23,0 km/h (4 Bft)
26.08.2007 07:00 17,6 C 94 % 1020,5 hPa 0,0 l/m 23,3 km/h (4 Bft) W 0,00 h 0 W/m 16,5 C 12,5 C 23,3 km/h (4 Bft)
26.08.2007 08:00 18,3 C 89 % 1020,5 hPa 0,0 l/m 21,7 km/h (4 Bft) NW 0,00 h 0 W/m 16,5 C 13,7 C 21,7 km/h (4 Bft)
26.08.2007 09:00 19,1 C 82 % 1020,5 hPa 0,0 l/m 21,9 km/h (4 Bft) NW 0,00 h 0 W/m 16,0 C 14,7 C 21,9 km/h (4 Bft)
26.08.2007 10:00 20,8 C 74 % 1021,4 hPa 0,0 l/m 22,7 km/h (4 Bft) NW 0,00 h 0 W/m 16,0 C 16,9 C 22,7 km/h (4 Bft)
26.08.2007 11:00 21,1 C 68 % 1021,5 hPa 0,0 l/m 25,0 km/h (4 Bft) NW 0,00 h 0 W/m 15,1 C 16,9 C 25,0 km/h (4 Bft)
26.08.2007 12:00 21,2 C 65 % 1022,2 hPa 0,0 l/m 23,6 km/h (4 Bft) N 0,00 h 0 W/m 14,4 C 17,3 C 23,6 km/h (4 Bft)
26.08.2007 13:00 21,3 C 63 % 1022,5 hPa 0,0 l/m 22,3 km/h (4 Bft) N-NW 0,00 h 0 W/m 13,8 C 17,5 C 22,3 km/h (4 Bft)
26.08.2007 14:00 20,8 C 60 % 1023,3 hPa 0,0 l/m 25,9 km/h (4 Bft) N 0,00 h 0 W/m 12,7 C 16,4 C 25,9 km/h (4 Bft)
26.08.2007 15:00 20,5 C 58 % 1023,5 hPa 0,0 l/m 24,3 km/h (4 Bft) N-NW 0,00 h 0 W/m 11,9 C 16,2 C 24,3 km/h (4 Bft)
26.08.2007 16:00 20,0 C 56 % 1023,5 hPa 0,0 l/m 24,4 km/h (4 Bft) N-NW 0,00 h 0 W/m 10,8 C 15,4 C 24,4 km/h (4 Bft)
26.08.2007 17:00 19,1 C 56 % 1023,5 hPa 0,0 l/m 25,6 km/h (4 Bft) N-NW 0,00 h 0 W/m 10,1 C 14,1 C 25,6 km/h (4 Bft)
26.08.2007 18:00 18,0 C 59 % 1023,4 hPa 0,0 l/m 24,3 km/h (4 Bft) NW 0,00 h 0 W/m 10,0 C 12,9 C 24,3 km/h (4 Bft)
26.08.2007 19:00 17,2 C 64 % 1022,5 hPa 0,0 l/m 20,1 km/h (4 Bft) NW 0,00 h 0 W/m 10,4 C 12,7 C 20,1 km/h (4 Bft)
26.08.2007 20:00 16,7 C 68 % 1022,5 hPa 0,0 l/m 18,5 km/h (3 Bft) NW 0,00 h 0 W/m 10,7 C 12,4 C 18,5 km/h (3 Bft)
26.08.2007 21:00 16,3 C 65 % 1022,5 hPa 0,0 l/m 22,7 km/h (4 Bft) NW 0,00 h 0 W/m 9,8 C 10,9 C 22,7 km/h (4 Bft)
26.08.2007 22:00 16,2 C 66 % 1022,5 hPa 0,0 l/m 24,8 km/h (4 Bft) N-NW 0,00 h 0 W/m 9,9 C 10,3 C 24,8 km/h (4 Bft)
26.08.2007 23:00 16,2 C 61 % 1022,5 hPa 0,0 l/m 25,6 km/h (4 Bft) NW 0,00 h 0 W/m 8,6 C 10,2 C 25,6 km/h (4 Bft)
Min-Datum _ 24.08.07 26.08.07 20.08.07 - 20.08.07 - - - 26.08.07 26.08.07 20.08.07
_ Min-Zeit 05:04 16:39 05:00 - 00:30 - - - 23:40 23:15 00:30
Minimum _ 15,1 C 54 % 1002,5 hPa - 0,0 km/h (0 Bft) - - - 8,2 C 9,1 C 0,0 km/h (0 Bft)
Max-Datum _ 22.08.07 24.08.07 25.08.07 22.08.07 21.08.07 - 20.08.07 20.08.07 23.08.07 22.08.07 21.08.07
_ Max-Zeit 14:12 05:39 14:49 17:17 16:26 - 00:00 00:00 13:28 14:12 16:26
Maximum _ 25,8 C 98 % 1024,5 hPa 26,1 l/m 37,4 km/h
N-NO (5 Bft)
- 0,00 h 0 W/m 20,0 C 25,1 C 37,4 km/h
N-NO (5 Bft)
Durchschnitt _ 19,0 C 83 % 1013,5 hPa #34,2 l/m 12,5 km/h (2 Bft) NW #0 min. 0 W/m 15,9 C 16,8 C 12,5 km/h (2 Bft)
copyright by Holger Just